sensor_id;sensor_type;location;lat;lon;timestamp;pressure;altitude;pressure_sealevel;temperature;humidity
18988;BME280;5494;51.796;10.952;2022-08-04T00:01:18;98883.56;;;23.73;50.59
18988;BME280;5494;51.796;10.952;2022-08-04T00:04:00;98887.69;;;23.67;50.88
18988;BME280;5494;51.796;10.952;2022-08-04T00:06:44;98879.59;;;23.69;50.98
18988;BME280;5494;51.796;10.952;2022-08-04T00:09:25;98883.22;;;23.68;50.92
18988;BME280;5494;51.796;10.952;2022-08-04T00:12:00;98881.91;;;23.64;51.48
18988;BME280;5494;51.796;10.952;2022-08-04T00:14:34;98882.56;;;23.58;51.67
18988;BME280;5494;51.796;10.952;2022-08-04T00:17:05;98894.47;;;23.53;52.14
18988;BME280;5494;51.796;10.952;2022-08-04T00:19:40;98886.00;;;23.50;51.43
18988;BME280;5494;51.796;10.952;2022-08-04T00:22:12;98880.06;;;23.56;51.35
18988;BME280;5494;51.796;10.952;2022-08-04T00:24:40;98880.88;;;23.57;51.09
18988;BME280;5494;51.796;10.952;2022-08-04T00:27:11;98877.56;;;23.54;51.73
18988;BME280;5494;51.796;10.952;2022-08-04T00:29:42;98880.53;;;23.51;51.90
18988;BME280;5494;51.796;10.952;2022-08-04T00:32:12;98879.03;;;23.49;51.61
18988;BME280;5494;51.796;10.952;2022-08-04T00:35:00;98888.28;;;23.45;51.73
18988;BME280;5494;51.796;10.952;2022-08-04T00:37:31;98886.13;;;23.40;51.44
18988;BME280;5494;51.796;10.952;2022-08-04T00:40:02;98876.31;;;23.41;51.88
18988;BME280;5494;51.796;10.952;2022-08-04T00:42:43;98881.44;;;23.34;51.82
18988;BME280;5494;51.796;10.952;2022-08-04T00:46:20;98877.13;;;23.33;52.19
18988;BME280;5494;51.796;10.952;2022-08-04T00:49:32;98878.13;;;23.32;51.90
18988;BME280;5494;51.796;10.952;2022-08-04T00:52:27;98877.94;;;23.26;52.24
18988;BME280;5494;51.796;10.952;2022-08-04T00:55:30;98877.44;;;23.22;52.55
18988;BME280;5494;51.796;10.952;2022-08-04T00:58:28;98870.78;;;23.18;53.13
18988;BME280;5494;51.796;10.952;2022-08-04T01:01:04;98871.56;;;23.10;53.26
18988;BME280;5494;51.796;10.952;2022-08-04T01:04:02;98872.06;;;23.06;53.80
18988;BME280;5494;51.796;10.952;2022-08-04T01:06:39;98876.88;;;23.02;53.49
18988;BME280;5494;51.796;10.952;2022-08-04T01:09:33;98866.25;;;23.02;53.42
18988;BME280;5494;51.796;10.952;2022-08-04T01:12:28;98872.34;;;23.03;53.64
18988;BME280;5494;51.796;10.952;2022-08-04T01:15:05;98866.72;;;22.98;53.47
18988;BME280;5494;51.796;10.952;2022-08-04T01:17:53;98872.16;;;22.96;53.54
18988;BME280;5494;51.796;10.952;2022-08-04T01:20:33;98865.84;;;22.89;53.32
18988;BME280;5494;51.796;10.952;2022-08-04T01:23:36;98860.03;;;22.86;52.21
18988;BME280;5494;51.796;10.952;2022-08-04T01:26:39;98861.38;;;22.90;52.20
18988;BME280;5494;51.796;10.952;2022-08-04T01:29:30;98873.78;;;22.89;51.94
18988;BME280;5494;51.796;10.952;2022-08-04T01:32:20;98867.31;;;22.84;51.19
18988;BME280;5494;51.796;10.952;2022-08-04T01:35:02;98869.31;;;22.82;52.05
18988;BME280;5494;51.796;10.952;2022-08-04T01:37:48;98869.47;;;22.80;52.22
18988;BME280;5494;51.796;10.952;2022-08-04T01:40:22;98868.28;;;22.74;53.23
18988;BME280;5494;51.796;10.952;2022-08-04T01:42:54;98870.22;;;22.72;52.88
18988;BME280;5494;51.796;10.952;2022-08-04T01:45:29;98866.53;;;22.65;53.47
18988;BME280;5494;51.796;10.952;2022-08-04T01:47:58;98868.63;;;22.62;53.63
18988;BME280;5494;51.796;10.952;2022-08-04T01:50:34;98865.28;;;22.52;53.94
18988;BME280;5494;51.796;10.952;2022-08-04T01:53:03;98864.44;;;22.51;53.37
18988;BME280;5494;51.796;10.952;2022-08-04T01:55:33;98862.78;;;22.50;53.73
18988;BME280;5494;51.796;10.952;2022-08-04T01:58:23;98862.94;;;22.49;53.90
18988;BME280;5494;51.796;10.952;2022-08-04T02:00:58;98864.28;;;22.53;53.62
18988;BME280;5494;51.796;10.952;2022-08-04T02:03:37;98865.34;;;22.60;52.32
18988;BME280;5494;51.796;10.952;2022-08-04T02:06:32;98856.91;;;22.64;52.29
18988;BME280;5494;51.796;10.952;2022-08-04T02:09:15;98861.91;;;22.67;51.73
18988;BME280;5494;51.796;10.952;2022-08-04T02:11:57;98861.91;;;22.67;52.78
18988;BME280;5494;51.796;10.952;2022-08-04T02:14:37;98860.88;;;22.68;52.15
18988;BME280;5494;51.796;10.952;2022-08-04T02:17:13;98858.66;;;22.73;51.76
18988;BME280;5494;51.796;10.952;2022-08-04T02:20:11;98860.66;;;22.80;50.87
18988;BME280;5494;51.796;10.952;2022-08-04T02:22:52;98857.19;;;22.79;51.67
18988;BME280;5494;51.796;10.952;2022-08-04T02:25:25;98858.47;;;22.75;51.94
18988;BME280;5494;51.796;10.952;2022-08-04T02:28:11;98849.16;;;22.71;51.35
18988;BME280;5494;51.796;10.952;2022-08-04T02:30:49;98847.72;;;22.76;51.22
18988;BME280;5494;51.796;10.952;2022-08-04T02:33:31;98843.59;;;22.74;51.25
18988;BME280;5494;51.796;10.952;2022-08-04T02:36:05;98836.72;;;22.71;50.79
18988;BME280;5494;51.796;10.952;2022-08-04T02:38:55;98846.16;;;22.66;51.00
18988;BME280;5494;51.796;10.952;2022-08-04T02:41:28;98846.31;;;22.64;51.14
18988;BME280;5494;51.796;10.952;2022-08-04T02:44:02;98843.59;;;22.74;50.38
18988;BME280;5494;51.796;10.952;2022-08-04T02:46:33;98840.78;;;22.84;48.97
18988;BME280;5494;51.796;10.952;2022-08-04T02:49:06;98839.75;;;22.76;49.46
18988;BME280;5494;51.796;10.952;2022-08-04T02:51:39;98830.44;;;22.72;50.09
18988;BME280;5494;51.796;10.952;2022-08-04T02:54:08;98832.66;;;22.77;49.85
18988;BME280;5494;51.796;10.952;2022-08-04T02:56:39;98827.50;;;22.75;49.89
18988;BME280;5494;51.796;10.952;2022-08-04T02:59:12;98828.19;;;22.77;48.93
18988;BME280;5494;51.796;10.952;2022-08-04T03:01:41;98827.19;;;22.78;49.43
18988;BME280;5494;51.796;10.952;2022-08-04T03:04:50;98835.81;;;22.81;49.18
18988;BME280;5494;51.796;10.952;2022-08-04T03:07:55;98826.34;;;22.78;49.06
18988;BME280;5494;51.796;10.952;2022-08-04T03:14:27;98830.94;;;22.68;49.07
18988;BME280;5494;51.796;10.952;2022-08-04T03:17:39;98834.38;;;22.60;50.02
18988;BME280;5494;51.796;10.952;2022-08-04T03:27:20;98834.13;;;22.46;50.69
18988;BME280;5494;51.796;10.952;2022-08-04T03:30:07;98834.75;;;22.39;50.38
18988;BME280;5494;51.796;10.952;2022-08-04T03:33:30;98832.75;;;22.42;50.45
18988;BME280;5494;51.796;10.952;2022-08-04T03:40:15;98835.72;;;22.38;51.01
18988;BME280;5494;51.796;10.952;2022-08-04T03:43:20;98842.84;;;22.38;50.98
18988;BME280;5494;51.796;10.952;2022-08-04T03:46:40;98838.53;;;22.37;50.86
18988;BME280;5494;51.796;10.952;2022-08-04T03:49:45;98836.03;;;22.35;51.27
18988;BME280;5494;51.796;10.952;2022-08-04T03:56:05;98834.69;;;22.31;51.00
18988;BME280;5494;51.796;10.952;2022-08-04T03:59:14;98837.19;;;22.33;51.85
18988;BME280;5494;51.796;10.952;2022-08-04T04:02:31;98839.16;;;22.31;51.39
18988;BME280;5494;51.796;10.952;2022-08-04T04:05:40;98840.19;;;22.38;51.38
18988;BME280;5494;51.796;10.952;2022-08-04T04:09:11;98840.25;;;22.46;51.12
18988;BME280;5494;51.796;10.952;2022-08-04T04:12:17;98836.13;;;22.52;51.44
18988;BME280;5494;51.796;10.952;2022-08-04T04:15:18;98843.16;;;22.61;51.03
18988;BME280;5494;51.796;10.952;2022-08-04T04:18:24;98834.88;;;22.64;51.21
18988;BME280;5494;51.796;10.952;2022-08-04T04:21:26;98827.50;;;22.75;51.17
18988;BME280;5494;51.796;10.952;2022-08-04T04:27:17;98827.28;;;23.03;51.25
18988;BME280;5494;51.796;10.952;2022-08-04T04:30:02;98832.81;;;23.09;51.25
18988;BME280;5494;51.796;10.952;2022-08-04T04:33:00;98824.03;;;23.25;49.49
18988;BME280;5494;51.796;10.952;2022-08-04T04:35:37;98829.94;;;23.53;48.97
18988;BME280;5494;51.796;10.952;2022-08-04T04:38:46;98826.81;;;23.82;48.05
18988;BME280;5494;51.796;10.952;2022-08-04T04:41:41;98838.09;;;24.16;47.30
18988;BME280;5494;51.796;10.952;2022-08-04T04:44:50;98840.06;;;24.55;46.19
18988;BME280;5494;51.796;10.952;2022-08-04T04:47:32;98834.00;;;24.85;45.32
18988;BME280;5494;51.796;10.952;2022-08-04T04:50:34;98840.22;;;25.17;44.39
18988;BME280;5494;51.796;10.952;2022-08-04T04:53:22;98834.75;;;25.41;45.42
18988;BME280;5494;51.796;10.952;2022-08-04T04:56:02;98834.06;;;25.78;44.82
18988;BME280;5494;51.796;10.952;2022-08-04T04:58:37;98824.41;;;26.00;43.65
18988;BME280;5494;51.796;10.952;2022-08-04T05:01:27;98823.03;;;26.56;43.00
18988;BME280;5494;51.796;10.952;2022-08-04T05:04:24;98821.00;;;26.87;42.61
18988;BME280;5494;51.796;10.952;2022-08-04T05:07:32;98821.50;;;26.91;41.89
18988;BME280;5494;51.796;10.952;2022-08-04T05:10:21;98823.00;;;27.29;40.93
18988;BME280;5494;51.796;10.952;2022-08-04T05:13:21;98831.53;;;27.39;40.08
18988;BME280;5494;51.796;10.952;2022-08-04T05:16:19;98827.06;;;27.82;39.16
18988;BME280;5494;51.796;10.952;2022-08-04T05:18:57;98825.09;;;27.70;39.31
18988;BME280;5494;51.796;10.952;2022-08-04T05:21:39;98830.31;;;27.78;39.35
18988;BME280;5494;51.796;10.952;2022-08-04T05:24:13;98825.16;;;27.55;39.79
18988;BME280;5494;51.796;10.952;2022-08-04T05:26:47;98831.38;;;27.26;40.43
18988;BME280;5494;51.796;10.952;2022-08-04T05:29:26;98827.09;;;27.47;40.44
18988;BME280;5494;51.796;10.952;2022-08-04T05:32:04;98824.22;;;27.48;39.69
18988;BME280;5494;51.796;10.952;2022-08-04T05:34:43;98824.97;;;27.57;39.67
18988;BME280;5494;51.796;10.952;2022-08-04T05:37:17;98829.69;;;27.76;40.52
18988;BME280;5494;51.796;10.952;2022-08-04T05:39:53;98826.13;;;28.39;39.38
18988;BME280;5494;51.796;10.952;2022-08-04T05:42:24;98828.34;;;28.36;39.44
18988;BME280;5494;51.796;10.952;2022-08-04T05:44:54;98823.53;;;28.52;38.87
18988;BME280;5494;51.796;10.952;2022-08-04T05:47:26;98819.09;;;28.66;38.64
18988;BME280;5494;51.796;10.952;2022-08-04T05:49:56;98830.06;;;29.12;37.00
18988;BME280;5494;51.796;10.952;2022-08-04T05:52:30;98825.56;;;29.87;35.88
18988;BME280;5494;51.796;10.952;2022-08-04T05:55:00;98823.69;;;30.73;34.91
18988;BME280;5494;51.796;10.952;2022-08-04T05:57:30;98822.75;;;31.05;34.11
18988;BME280;5494;51.796;10.952;2022-08-04T06:00:03;98814.72;;;31.50;33.58
18988;BME280;5494;51.796;10.952;2022-08-04T06:02:56;98823.00;;;32.97;30.94
18988;BME280;5494;51.796;10.952;2022-08-04T06:05:27;98814.38;;;33.85;28.57
18988;BME280;5494;51.796;10.952;2022-08-04T06:07:56;98813.66;;;34.78;23.99
18988;BME280;5494;51.796;10.952;2022-08-04T06:10:41;98814.03;;;35.78;22.63
18988;BME280;5494;51.796;10.952;2022-08-04T06:13:16;98807.63;;;36.51;21.32
18988;BME280;5494;51.796;10.952;2022-08-04T06:16:07;98813.06;;;36.51;21.05
18988;BME280;5494;51.796;10.952;2022-08-04T06:19:02;98808.97;;;36.15;21.28
18988;BME280;5494;51.796;10.952;2022-08-04T06:21:55;98810.91;;;36.69;20.85
18988;BME280;5494;51.796;10.952;2022-08-04T06:24:28;98807.88;;;36.88;21.12
18988;BME280;5494;51.796;10.952;2022-08-04T06:26:58;98801.28;;;36.62;20.90
18988;BME280;5494;51.796;10.952;2022-08-04T06:29:29;98807.28;;;36.47;21.30
18988;BME280;5494;51.796;10.952;2022-08-04T06:32:04;98805.34;;;36.43;21.45
18988;BME280;5494;51.796;10.952;2022-08-04T06:35:02;98804.94;;;36.51;21.17
18988;BME280;5494;51.796;10.952;2022-08-04T06:37:32;98797.75;;;36.61;21.26
18988;BME280;5494;51.796;10.952;2022-08-04T06:40:11;98799.09;;;36.81;20.94
18988;BME280;5494;51.796;10.952;2022-08-04T06:43:00;98796.91;;;36.78;21.43
18988;BME280;5494;51.796;10.952;2022-08-04T06:45:30;98804.28;;;36.82;21.39
18988;BME280;5494;51.796;10.952;2022-08-04T06:48:02;98811.66;;;37.30;20.58
18988;BME280;5494;51.796;10.952;2022-08-04T06:50:34;98797.97;;;38.01;20.06
18988;BME280;5494;51.796;10.952;2022-08-04T06:53:24;98797.66;;;38.29;20.35
18988;BME280;5494;51.796;10.952;2022-08-04T06:55:55;98796.50;;;38.57;19.64
18988;BME280;5494;51.796;10.952;2022-08-04T06:58:26;98795.44;;;38.21;20.30
18988;BME280;5494;51.796;10.952;2022-08-04T07:01:00;98804.13;;;37.37;21.12
18988;BME280;5494;51.796;10.952;2022-08-04T07:03:30;98801.13;;;37.34;21.34
18988;BME280;5494;51.796;10.952;2022-08-04T07:06:01;98805.63;;;37.23;21.77
18988;BME280;5494;51.796;10.952;2022-08-04T07:08:41;98799.34;;;36.41;22.52
18988;BME280;5494;51.796;10.952;2022-08-04T07:11:10;98796.31;;;36.04;23.40
18988;BME280;5494;51.796;10.952;2022-08-04T07:13:40;98802.47;;;36.16;23.45
18988;BME280;5494;51.796;10.952;2022-08-04T07:16:13;98801.06;;;36.13;23.83
18988;BME280;5494;51.796;10.952;2022-08-04T07:18:43;98797.13;;;36.04;23.86
18988;BME280;5494;51.796;10.952;2022-08-04T07:21:19;98804.59;;;35.97;23.89
18988;BME280;5494;51.796;10.952;2022-08-04T07:23:49;98795.44;;;35.53;24.38
18988;BME280;5494;51.796;10.952;2022-08-04T07:26:18;98786.66;;;35.74;23.88
18988;BME280;5494;51.796;10.952;2022-08-04T07:28:47;98791.22;;;36.07;23.48
18988;BME280;5494;51.796;10.952;2022-08-04T07:31:19;98796.75;;;36.29;23.34
18988;BME280;5494;51.796;10.952;2022-08-04T07:34:03;98800.75;;;36.26;22.82
18988;BME280;5494;51.796;10.952;2022-08-04T07:36:51;98798.16;;;36.70;22.62
18988;BME280;5494;51.796;10.952;2022-08-04T07:39:24;98793.44;;;36.82;22.61
18988;BME280;5494;51.796;10.952;2022-08-04T07:41:58;98793.19;;;37.05;22.24
18988;BME280;5494;51.796;10.952;2022-08-04T07:44:30;98787.78;;;37.27;22.35
18988;BME280;5494;51.796;10.952;2022-08-04T07:47:01;98797.53;;;37.28;23.17
18988;BME280;5494;51.796;10.952;2022-08-04T07:49:30;98793.13;;;35.45;24.52
18988;BME280;5494;51.796;10.952;2022-08-04T07:52:21;98788.00;;;36.10;24.75
18988;BME280;5494;51.796;10.952;2022-08-04T07:54:50;98789.66;;;37.05;23.67
18988;BME280;5494;51.796;10.952;2022-08-04T07:57:20;98786.81;;;37.17;23.17
18988;BME280;5494;51.796;10.952;2022-08-04T08:00:10;98792.53;;;35.71;24.81
18988;BME280;5494;51.796;10.952;2022-08-04T08:02:42;98794.03;;;36.29;24.32
18988;BME280;5494;51.796;10.952;2022-08-04T08:05:14;98781.97;;;36.58;23.16
18988;BME280;5494;51.796;10.952;2022-08-04T08:07:46;98772.66;;;36.49;23.29
18988;BME280;5494;51.796;10.952;2022-08-04T08:10:22;98784.97;;;36.57;23.34
18988;BME280;5494;51.796;10.952;2022-08-04T08:12:52;98774.59;;;35.82;24.27
18988;BME280;5494;51.796;10.952;2022-08-04T08:15:22;98769.63;;;35.05;24.58
18988;BME280;5494;51.796;10.952;2022-08-04T08:17:50;98772.91;;;35.07;25.44
18988;BME280;5494;51.796;10.952;2022-08-04T08:20:29;98764.16;;;35.29;24.85
18988;BME280;5494;51.796;10.952;2022-08-04T08:23:00;98773.22;;;34.83;25.23
18988;BME280;5494;51.796;10.952;2022-08-04T08:25:30;98768.81;;;34.93;25.62
18988;BME280;5494;51.796;10.952;2022-08-04T08:28:03;98764.38;;;35.27;25.32
18988;BME280;5494;51.796;10.952;2022-08-04T08:30:32;98769.56;;;34.65;25.50
18988;BME280;5494;51.796;10.952;2022-08-04T08:33:06;98767.88;;;34.99;24.64
18988;BME280;5494;51.796;10.952;2022-08-04T08:35:47;98758.13;;;35.55;24.35
18988;BME280;5494;51.796;10.952;2022-08-04T08:38:37;98755.00;;;35.46;24.75
18988;BME280;5494;51.796;10.952;2022-08-04T08:41:28;98753.53;;;35.39;24.88
18988;BME280;5494;51.796;10.952;2022-08-04T08:47:30;98747.22;;;35.33;24.51
18988;BME280;5494;51.796;10.952;2022-08-04T08:50:54;98745.31;;;35.96;24.31
18988;BME280;5494;51.796;10.952;2022-08-04T08:56:37;98745.94;;;36.36;23.39
18988;BME280;5494;51.796;10.952;2022-08-04T08:59:43;98748.81;;;36.51;22.69
18988;BME280;5494;51.796;10.952;2022-08-04T09:02:53;98738.97;;;37.05;22.81
18988;BME280;5494;51.796;10.952;2022-08-04T09:06:37;98737.81;;;36.58;22.36
18988;BME280;5494;51.796;10.952;2022-08-04T09:09:42;98747.78;;;37.71;21.48
18988;BME280;5494;51.796;10.952;2022-08-04T09:12:24;98747.84;;;38.60;21.41
18988;BME280;5494;51.796;10.952;2022-08-04T09:15:07;98733.69;;;39.26;20.09
18988;BME280;5494;51.796;10.952;2022-08-04T09:17:46;98729.84;;;39.17;19.91
18988;BME280;5494;51.796;10.952;2022-08-04T09:20:27;98733.34;;;38.97;20.38
18988;BME280;5494;51.796;10.952;2022-08-04T09:23:08;98731.19;;;38.99;19.99
18988;BME280;5494;51.796;10.952;2022-08-04T09:25:50;98734.91;;;38.83;20.34
18988;BME280;5494;51.796;10.952;2022-08-04T09:28:28;98728.31;;;39.61;19.90
18988;BME280;5494;51.796;10.952;2022-08-04T09:31:22;98734.81;;;40.06;19.39
18988;BME280;5494;51.796;10.952;2022-08-04T09:34:01;98725.97;;;40.65;18.84
18988;BME280;5494;51.796;10.952;2022-08-04T09:36:38;98729.28;;;40.46;18.42
18988;BME280;5494;51.796;10.952;2022-08-04T09:39:22;98733.91;;;40.56;18.27
18988;BME280;5494;51.796;10.952;2022-08-04T09:42:08;98727.06;;;40.53;18.87
18988;BME280;5494;51.796;10.952;2022-08-04T09:44:52;98728.97;;;40.63;18.72
18988;BME280;5494;51.796;10.952;2022-08-04T09:47:38;98729.34;;;41.01;18.24
18988;BME280;5494;51.796;10.952;2022-08-04T09:50:26;98721.06;;;40.62;18.29
18988;BME280;5494;51.796;10.952;2022-08-04T09:53:09;98727.72;;;40.30;18.70
18988;BME280;5494;51.796;10.952;2022-08-04T09:55:54;98723.88;;;40.36;18.50
18988;BME280;5494;51.796;10.952;2022-08-04T09:58:50;98722.53;;;40.34;18.84
18988;BME280;5494;51.796;10.952;2022-08-04T10:01:24;98713.53;;;40.38;18.78
18988;BME280;5494;51.796;10.952;2022-08-04T10:03:59;98721.69;;;40.38;18.52
18988;BME280;5494;51.796;10.952;2022-08-04T10:07:28;98728.03;;;39.68;19.18
18988;BME280;5494;51.796;10.952;2022-08-04T10:10:20;98720.41;;;39.65;19.26
18988;BME280;5494;51.796;10.952;2022-08-04T10:13:20;98722.31;;;39.69;19.47
18988;BME280;5494;51.796;10.952;2022-08-04T10:16:10;98718.50;;;39.60;19.29
18988;BME280;5494;51.796;10.952;2022-08-04T10:18:58;98710.88;;;39.93;19.17
18988;BME280;5494;51.796;10.952;2022-08-04T10:21:46;98715.75;;;40.06;18.89
18988;BME280;5494;51.796;10.952;2022-08-04T10:24:56;98713.03;;;40.01;19.08
18988;BME280;5494;51.796;10.952;2022-08-04T10:27:33;98701.00;;;40.22;18.91
18988;BME280;5494;51.796;10.952;2022-08-04T10:30:07;98713.13;;;40.60;18.51
18988;BME280;5494;51.796;10.952;2022-08-04T10:32:48;98699.88;;;40.43;18.77
18988;BME280;5494;51.796;10.952;2022-08-04T10:35:22;98702.34;;;40.20;18.76
18988;BME280;5494;51.796;10.952;2022-08-04T10:38:04;98704.19;;;40.49;18.20
18988;BME280;5494;51.796;10.952;2022-08-04T10:40:42;98704.25;;;40.34;18.46
18988;BME280;5494;51.796;10.952;2022-08-04T10:43:32;98711.97;;;39.61;18.61
18988;BME280;5494;51.796;10.952;2022-08-04T10:46:13;98703.72;;;39.16;18.84
18988;BME280;5494;51.796;10.952;2022-08-04T10:48:53;98709.38;;;38.94;19.31
18988;BME280;5494;51.796;10.952;2022-08-04T10:51:33;98704.94;;;38.73;19.72
18988;BME280;5494;51.796;10.952;2022-08-04T10:54:30;98707.09;;;38.60;19.73
18988;BME280;5494;51.796;10.952;2022-08-04T10:57:07;98701.78;;;38.39;20.06
18988;BME280;5494;51.796;10.952;2022-08-04T10:59:44;98696.06;;;37.88;20.73
18988;BME280;5494;51.796;10.952;2022-08-04T11:02:28;98700.03;;;37.75;21.04
18988;BME280;5494;51.796;10.952;2022-08-04T11:05:11;98710.13;;;37.48;20.59
18988;BME280;5494;51.796;10.952;2022-08-04T11:07:46;98709.00;;;37.17;21.29
18988;BME280;5494;51.796;10.952;2022-08-04T11:10:20;98702.03;;;37.26;20.80
18988;BME280;5494;51.796;10.952;2022-08-04T11:13:00;98706.84;;;37.46;20.99
18988;BME280;5494;51.796;10.952;2022-08-04T11:15:36;98697.94;;;37.56;20.90
18988;BME280;5494;51.796;10.952;2022-08-04T11:18:13;98700.53;;;37.40;20.98
18988;BME280;5494;51.796;10.952;2022-08-04T11:20:55;98695.97;;;37.46;20.54
18988;BME280;5494;51.796;10.952;2022-08-04T11:23:34;98687.59;;;37.47;20.73
18988;BME280;5494;51.796;10.952;2022-08-04T11:26:12;98690.97;;;37.33;20.87
18988;BME280;5494;51.796;10.952;2022-08-04T11:28:53;98688.41;;;37.21;20.69
18988;BME280;5494;51.796;10.952;2022-08-04T11:31:34;98694.94;;;37.20;21.09
18988;BME280;5494;51.796;10.952;2022-08-04T11:34:13;98687.69;;;37.04;21.52
18988;BME280;5494;51.796;10.952;2022-08-04T11:36:52;98691.41;;;36.71;21.98
18988;BME280;5494;51.796;10.952;2022-08-04T11:39:27;98688.53;;;36.83;21.81
18988;BME280;5494;51.796;10.952;2022-08-04T11:42:06;98688.19;;;37.01;21.59
18988;BME280;5494;51.796;10.952;2022-08-04T11:44:46;98682.13;;;37.16;21.70
18988;BME280;5494;51.796;10.952;2022-08-04T11:47:25;98693.34;;;37.02;21.60
18988;BME280;5494;51.796;10.952;2022-08-04T11:50:04;98686.41;;;36.63;22.05
18988;BME280;5494;51.796;10.952;2022-08-04T11:52:41;98698.34;;;36.45;22.93
18988;BME280;5494;51.796;10.952;2022-08-04T11:55:15;98684.63;;;36.52;23.26
18988;BME280;5494;51.796;10.952;2022-08-04T11:57:47;98689.50;;;36.72;23.00
18988;BME280;5494;51.796;10.952;2022-08-04T12:00:24;98688.63;;;36.66;22.68
18988;BME280;5494;51.796;10.952;2022-08-04T12:03:24;98695.47;;;36.52;22.82
18988;BME280;5494;51.796;10.952;2022-08-04T12:06:15;98695.25;;;36.58;22.81
18988;BME280;5494;51.796;10.952;2022-08-04T12:09:02;98686.50;;;36.51;23.50
18988;BME280;5494;51.796;10.952;2022-08-04T12:11:50;98676.78;;;36.50;23.20
18988;BME280;5494;51.796;10.952;2022-08-04T12:14:32;98685.94;;;36.11;23.63
18988;BME280;5494;51.796;10.952;2022-08-04T12:17:09;98691.47;;;36.16;23.81
18988;BME280;5494;51.796;10.952;2022-08-04T12:19:48;98684.00;;;36.23;24.31
18988;BME280;5494;51.796;10.952;2022-08-04T12:22:46;98669.81;;;36.59;23.36
18988;BME280;5494;51.796;10.952;2022-08-04T12:25:23;98665.47;;;36.58;23.57
18988;BME280;5494;51.796;10.952;2022-08-04T12:27:58;98666.47;;;36.52;23.56
18988;BME280;5494;51.796;10.952;2022-08-04T12:30:35;98665.13;;;36.50;23.36
18988;BME280;5494;51.796;10.952;2022-08-04T12:33:34;98668.38;;;36.74;23.44
18988;BME280;5494;51.796;10.952;2022-08-04T12:36:34;98682.63;;;36.86;22.93
18988;BME280;5494;51.796;10.952;2022-08-04T12:39:09;98672.66;;;36.91;23.04
18988;BME280;5494;51.796;10.952;2022-08-04T12:41:51;98674.78;;;36.89;22.75
18988;BME280;5494;51.796;10.952;2022-08-04T12:44:33;98676.25;;;36.75;22.56
18988;BME280;5494;51.796;10.952;2022-08-04T12:47:08;98669.56;;;36.83;23.13
18988;BME280;5494;51.796;10.952;2022-08-04T12:50:01;98662.25;;;37.10;22.74
18988;BME280;5494;51.796;10.952;2022-08-04T12:52:40;98660.84;;;37.34;22.38
18988;BME280;5494;51.796;10.952;2022-08-04T12:55:32;98660.78;;;37.24;22.67
18988;BME280;5494;51.796;10.952;2022-08-04T12:58:15;98663.94;;;36.89;22.62
18988;BME280;5494;51.796;10.952;2022-08-04T13:01:07;98654.22;;;36.66;22.71
18988;BME280;5494;51.796;10.952;2022-08-04T13:04:00;98651.00;;;36.69;22.29
18988;BME280;5494;51.796;10.952;2022-08-04T13:06:33;98654.13;;;36.83;23.04
18988;BME280;5494;51.796;10.952;2022-08-04T13:09:06;98656.44;;;36.96;22.74
18988;BME280;5494;51.796;10.952;2022-08-04T13:11:42;98652.94;;;37.28;22.45
18988;BME280;5494;51.796;10.952;2022-08-04T13:14:16;98639.94;;;37.30;22.17
18988;BME280;5494;51.796;10.952;2022-08-04T13:16:57;98636.34;;;37.19;22.82
18988;BME280;5494;51.796;10.952;2022-08-04T13:19:28;98632.34;;;37.27;22.32
18988;BME280;5494;51.796;10.952;2022-08-04T13:21:57;98643.69;;;37.24;22.74
18988;BME280;5494;51.796;10.952;2022-08-04T13:24:33;98645.63;;;37.28;22.37
18988;BME280;5494;51.796;10.952;2022-08-04T13:27:23;98639.84;;;36.93;22.57
18988;BME280;5494;51.796;10.952;2022-08-04T13:29:56;98639.91;;;36.98;22.84
18988;BME280;5494;51.796;10.952;2022-08-04T13:32:31;98645.19;;;36.83;22.73
18988;BME280;5494;51.796;10.952;2022-08-04T13:35:02;98650.44;;;36.67;23.33
18988;BME280;5494;51.796;10.952;2022-08-04T13:37:35;98642.06;;;36.69;23.42
18988;BME280;5494;51.796;10.952;2022-08-04T13:40:10;98641.16;;;36.85;23.12
18988;BME280;5494;51.796;10.952;2022-08-04T13:42:46;98625.75;;;36.91;23.42
18988;BME280;5494;51.796;10.952;2022-08-04T13:45:22;98624.97;;;37.22;23.05
18988;BME280;5494;51.796;10.952;2022-08-04T13:48:02;98623.91;;;37.28;22.89
18988;BME280;5494;51.796;10.952;2022-08-04T13:50:52;98620.44;;;37.33;22.66
18988;BME280;5494;51.796;10.952;2022-08-04T13:53:21;98615.03;;;37.33;23.02
18988;BME280;5494;51.796;10.952;2022-08-04T13:55:59;98609.38;;;37.39;23.31
18988;BME280;5494;51.796;10.952;2022-08-04T13:58:32;98612.44;;;37.16;22.45
18988;BME280;5494;51.796;10.952;2022-08-04T14:01:14;98615.75;;;37.23;22.23
18988;BME280;5494;51.796;10.952;2022-08-04T14:03:56;98615.75;;;37.23;22.54
18988;BME280;5494;51.796;10.952;2022-08-04T14:06:30;98613.06;;;37.28;22.71
18988;BME280;5494;51.796;10.952;2022-08-04T14:09:09;98612.53;;;37.26;22.76
18988;BME280;5494;51.796;10.952;2022-08-04T14:11:43;98618.13;;;37.15;22.80
18988;BME280;5494;51.796;10.952;2022-08-04T14:14:35;98604.41;;;37.26;22.75
18988;BME280;5494;51.796;10.952;2022-08-04T14:17:09;98609.53;;;37.28;22.40
18988;BME280;5494;51.796;10.952;2022-08-04T14:19:52;98606.09;;;37.05;22.78
18988;BME280;5494;51.796;10.952;2022-08-04T14:22:34;98601.16;;;36.71;23.22
18988;BME280;5494;51.796;10.952;2022-08-04T14:25:08;98609.28;;;36.49;23.39
18988;BME280;5494;51.796;10.952;2022-08-04T14:27:46;98603.50;;;36.40;23.31
18988;BME280;5494;51.796;10.952;2022-08-04T14:30:24;98598.59;;;36.37;24.22
18988;BME280;5494;51.796;10.952;2022-08-04T14:32:57;98595.19;;;36.25;23.55
18988;BME280;5494;51.796;10.952;2022-08-04T14:35:56;98594.47;;;36.13;23.71
18988;BME280;5494;51.796;10.952;2022-08-04T14:38:51;98597.13;;;36.08;24.36
18988;BME280;5494;51.796;10.952;2022-08-04T14:41:27;98592.34;;;35.93;24.51
18988;BME280;5494;51.796;10.952;2022-08-04T14:43:58;98590.56;;;36.04;24.13
18988;BME280;5494;51.796;10.952;2022-08-04T14:46:28;98591.53;;;35.76;24.74
18988;BME280;5494;51.796;10.952;2022-08-04T14:49:08;98590.66;;;35.53;24.66